sensor_id;sensor_type;location;lat;lon;timestamp;P1;durP1;ratioP1;P2;durP2;ratioP2
11646;SDS011;5880;52.342;9.662;2022-09-17T00:01:01;1.50;;;0.97;;
11646;SDS011;5880;52.342;9.662;2022-09-17T00:03:28;2.03;;;0.97;;
11646;SDS011;5880;52.342;9.662;2022-09-17T00:06:01;1.83;;;0.97;;
11646;SDS011;5880;52.342;9.662;2022-09-17T00:08:33;2.90;;;0.97;;
11646;SDS011;5880;52.342;9.662;2022-09-17T00:11:15;3.53;;;1.10;;
11646;SDS011;5880;52.342;9.662;2022-09-17T00:13:47;3.13;;;1.07;;
11646;SDS011;5880;52.342;9.662;2022-09-17T00:16:21;1.90;;;1.20;;
11646;SDS011;5880;52.342;9.662;2022-09-17T00:18:50;3.10;;;1.10;;
11646;SDS011;5880;52.342;9.662;2022-09-17T00:21:16;2.90;;;1.57;;
11646;SDS011;5880;52.342;9.662;2022-09-17T00:23:44;2.83;;;1.27;;
11646;SDS011;5880;52.342;9.662;2022-09-17T00:26:10;5.07;;;1.30;;
11646;SDS011;5880;52.342;9.662;2022-09-17T00:28:36;4.60;;;1.53;;
11646;SDS011;5880;52.342;9.662;2022-09-17T00:31:05;2.93;;;1.40;;
11646;SDS011;5880;52.342;9.662;2022-09-17T00:33:32;2.60;;;1.10;;
11646;SDS011;5880;52.342;9.662;2022-09-17T00:35:59;2.40;;;1.40;;
11646;SDS011;5880;52.342;9.662;2022-09-17T00:38:27;3.73;;;1.30;;
11646;SDS011;5880;52.342;9.662;2022-09-17T00:40:53;3.17;;;1.43;;
11646;SDS011;5880;52.342;9.662;2022-09-17T00:43:32;2.33;;;1.17;;
11646;SDS011;5880;52.342;9.662;2022-09-17T00:46:25;2.70;;;1.17;;
11646;SDS011;5880;52.342;9.662;2022-09-17T00:49:05;3.13;;;1.20;;
11646;SDS011;5880;52.342;9.662;2022-09-17T00:51:44;3.20;;;1.13;;
11646;SDS011;5880;52.342;9.662;2022-09-17T00:54:17;4.93;;;1.30;;
11646;SDS011;5880;52.342;9.662;2022-09-17T00:56:43;1.83;;;1.10;;
11646;SDS011;5880;52.342;9.662;2022-09-17T00:59:09;2.93;;;1.03;;
11646;SDS011;5880;52.342;9.662;2022-09-17T01:01:35;3.13;;;1.10;;
11646;SDS011;5880;52.342;9.662;2022-09-17T01:04:02;2.47;;;1.10;;
11646;SDS011;5880;52.342;9.662;2022-09-17T01:06:40;2.10;;;1.10;;
11646;SDS011;5880;52.342;9.662;2022-09-17T01:14:48;2.40;;;1.10;;
11646;SDS011;5880;52.342;9.662;2022-09-17T01:17:58;2.33;;;1.30;;
11646;SDS011;5880;52.342;9.662;2022-09-17T01:20:45;4.80;;;1.37;;
11646;SDS011;5880;52.342;9.662;2022-09-17T01:23:49;2.50;;;0.93;;
11646;SDS011;5880;52.342;9.662;2022-09-17T01:26:53;3.53;;;1.03;;
11646;SDS011;5880;52.342;9.662;2022-09-17T01:29:52;1.53;;;1.07;;
11646;SDS011;5880;52.342;9.662;2022-09-17T01:33:07;3.37;;;1.20;;
11646;SDS011;5880;52.342;9.662;2022-09-17T01:36:00;4.30;;;1.33;;
11646;SDS011;5880;52.342;9.662;2022-09-17T01:38:52;3.67;;;1.30;;
11646;SDS011;5880;52.342;9.662;2022-09-17T01:41:35;3.50;;;0.90;;
11646;SDS011;5880;52.342;9.662;2022-09-17T01:44:21;3.63;;;1.40;;
11646;SDS011;5880;52.342;9.662;2022-09-17T01:47:18;3.43;;;1.13;;
11646;SDS011;5880;52.342;9.662;2022-09-17T01:49:58;2.67;;;1.30;;
11646;SDS011;5880;52.342;9.662;2022-09-17T01:52:32;3.40;;;1.30;;
11646;SDS011;5880;52.342;9.662;2022-09-17T01:55:04;3.80;;;1.13;;
11646;SDS011;5880;52.342;9.662;2022-09-17T01:57:37;3.73;;;1.13;;
11646;SDS011;5880;52.342;9.662;2022-09-17T02:00:11;3.27;;;1.30;;
11646;SDS011;5880;52.342;9.662;2022-09-17T02:02:45;3.97;;;1.50;;
11646;SDS011;5880;52.342;9.662;2022-09-17T02:05:31;3.33;;;1.27;;
11646;SDS011;5880;52.342;9.662;2022-09-17T02:08:07;3.20;;;1.40;;
11646;SDS011;5880;52.342;9.662;2022-09-17T02:10:48;6.33;;;1.50;;
11646;SDS011;5880;52.342;9.662;2022-09-17T02:13:26;5.50;;;1.57;;
11646;SDS011;5880;52.342;9.662;2022-09-17T02:16:01;4.27;;;1.30;;
11646;SDS011;5880;52.342;9.662;2022-09-17T02:26:55;6.70;;;1.27;;
11646;SDS011;5880;52.342;9.662;2022-09-17T02:29:39;4.83;;;1.63;;
11646;SDS011;5880;52.342;9.662;2022-09-17T02:32:08;3.93;;;1.20;;
11646;SDS011;5880;52.342;9.662;2022-09-17T02:34:35;4.33;;;1.23;;
11646;SDS011;5880;52.342;9.662;2022-09-17T02:37:01;3.97;;;1.30;;
11646;SDS011;5880;52.342;9.662;2022-09-17T02:39:28;4.70;;;1.50;;
11646;SDS011;5880;52.342;9.662;2022-09-17T02:44:37;5.50;;;1.50;;
11646;SDS011;5880;52.342;9.662;2022-09-17T03:02:15;4.50;;;1.53;;
11646;SDS011;5880;52.342;9.662;2022-09-17T03:05:07;3.47;;;1.40;;
11646;SDS011;5880;52.342;9.662;2022-09-17T03:07:34;3.03;;;1.17;;
11646;SDS011;5880;52.342;9.662;2022-09-17T03:10:01;3.63;;;1.43;;
11646;SDS011;5880;52.342;9.662;2022-09-17T03:12:27;4.20;;;1.30;;
11646;SDS011;5880;52.342;9.662;2022-09-17T03:14:53;4.57;;;1.70;;
11646;SDS011;5880;52.342;9.662;2022-09-17T03:17:18;4.53;;;1.43;;
11646;SDS011;5880;52.342;9.662;2022-09-17T03:19:44;4.20;;;1.20;;
11646;SDS011;5880;52.342;9.662;2022-09-17T03:22:10;5.73;;;1.53;;
11646;SDS011;5880;52.342;9.662;2022-09-17T03:24:36;4.00;;;1.30;;
11646;SDS011;5880;52.342;9.662;2022-09-17T03:27:02;2.87;;;1.20;;
11646;SDS011;5880;52.342;9.662;2022-09-17T03:29:27;5.27;;;1.70;;
11646;SDS011;5880;52.342;9.662;2022-09-17T03:31:53;3.80;;;1.33;;
11646;SDS011;5880;52.342;9.662;2022-09-17T03:34:19;5.67;;;1.47;;
11646;SDS011;5880;52.342;9.662;2022-09-17T03:36:45;6.17;;;1.47;;
11646;SDS011;5880;52.342;9.662;2022-09-17T03:39:10;5.53;;;1.87;;
11646;SDS011;5880;52.342;9.662;2022-09-17T03:41:37;3.50;;;1.57;;
11646;SDS011;5880;52.342;9.662;2022-09-17T03:44:03;3.70;;;1.63;;
11646;SDS011;5880;52.342;9.662;2022-09-17T03:46:29;6.80;;;1.70;;
11646;SDS011;5880;52.342;9.662;2022-09-17T03:48:55;4.03;;;1.50;;
11646;SDS011;5880;52.342;9.662;2022-09-17T03:51:20;5.43;;;1.50;;
11646;SDS011;5880;52.342;9.662;2022-09-17T03:53:46;4.03;;;1.60;;
11646;SDS011;5880;52.342;9.662;2022-09-17T03:56:12;4.50;;;2.00;;
11646;SDS011;5880;52.342;9.662;2022-09-17T03:58:38;6.87;;;2.77;;
11646;SDS011;5880;52.342;9.662;2022-09-17T04:01:04;5.57;;;2.20;;
11646;SDS011;5880;52.342;9.662;2022-09-17T04:03:30;5.60;;;2.00;;
11646;SDS011;5880;52.342;9.662;2022-09-17T04:05:56;5.87;;;1.90;;
11646;SDS011;5880;52.342;9.662;2022-09-17T04:08:22;4.73;;;1.80;;
11646;SDS011;5880;52.342;9.662;2022-09-17T04:10:48;4.80;;;1.70;;
11646;SDS011;5880;52.342;9.662;2022-09-17T04:13:15;4.87;;;1.87;;
11646;SDS011;5880;52.342;9.662;2022-09-17T04:15:42;4.30;;;1.57;;
11646;SDS011;5880;52.342;9.662;2022-09-17T04:18:10;2.80;;;1.33;;
11646;SDS011;5880;52.342;9.662;2022-09-17T04:20:36;5.93;;;1.47;;
11646;SDS011;5880;52.342;9.662;2022-09-17T04:23:02;5.40;;;1.63;;
11646;SDS011;5880;52.342;9.662;2022-09-17T04:25:28;4.03;;;1.60;;
11646;SDS011;5880;52.342;9.662;2022-09-17T04:27:54;4.17;;;1.43;;
11646;SDS011;5880;52.342;9.662;2022-09-17T04:30:20;5.97;;;1.67;;
11646;SDS011;5880;52.342;9.662;2022-09-17T04:32:47;5.17;;;1.50;;
11646;SDS011;5880;52.342;9.662;2022-09-17T04:35:12;6.07;;;1.90;;
11646;SDS011;5880;52.342;9.662;2022-09-17T04:37:38;6.80;;;2.10;;
11646;SDS011;5880;52.342;9.662;2022-09-17T04:40:04;3.67;;;1.40;;
11646;SDS011;5880;52.342;9.662;2022-09-17T04:42:31;4.30;;;1.57;;
11646;SDS011;5880;52.342;9.662;2022-09-17T04:44:57;6.77;;;1.83;;
11646;SDS011;5880;52.342;9.662;2022-09-17T04:47:23;5.47;;;1.50;;
11646;SDS011;5880;52.342;9.662;2022-09-17T04:49:49;4.70;;;1.50;;
11646;SDS011;5880;52.342;9.662;2022-09-17T04:52:16;4.30;;;1.60;;
11646;SDS011;5880;52.342;9.662;2022-09-17T04:54:41;5.80;;;1.60;;
11646;SDS011;5880;52.342;9.662;2022-09-17T04:57:07;6.70;;;1.80;;
11646;SDS011;5880;52.342;9.662;2022-09-17T04:59:33;5.50;;;1.70;;
11646;SDS011;5880;52.342;9.662;2022-09-17T05:01:59;5.10;;;1.47;;
11646;SDS011;5880;52.342;9.662;2022-09-17T05:04:24;4.63;;;1.70;;
11646;SDS011;5880;52.342;9.662;2022-09-17T05:06:50;5.07;;;1.37;;
11646;SDS011;5880;52.342;9.662;2022-09-17T05:09:15;4.37;;;1.53;;
11646;SDS011;5880;52.342;9.662;2022-09-17T05:11:41;4.00;;;1.50;;
11646;SDS011;5880;52.342;9.662;2022-09-17T05:14:07;6.27;;;1.70;;
11646;SDS011;5880;52.342;9.662;2022-09-17T05:16:33;7.83;;;1.90;;
11646;SDS011;5880;52.342;9.662;2022-09-17T05:18:59;6.43;;;1.80;;
11646;SDS011;5880;52.342;9.662;2022-09-17T05:21:24;5.43;;;1.60;;
11646;SDS011;5880;52.342;9.662;2022-09-17T05:23:50;5.57;;;1.70;;
11646;SDS011;5880;52.342;9.662;2022-09-17T05:26:16;4.30;;;1.27;;
11646;SDS011;5880;52.342;9.662;2022-09-17T05:28:41;5.73;;;1.57;;
11646;SDS011;5880;52.342;9.662;2022-09-17T05:31:08;4.47;;;1.80;;
11646;SDS011;5880;52.342;9.662;2022-09-17T05:33:34;6.03;;;1.73;;
11646;SDS011;5880;52.342;9.662;2022-09-17T05:36:00;4.47;;;1.37;;
11646;SDS011;5880;52.342;9.662;2022-09-17T05:38:26;5.20;;;1.50;;
11646;SDS011;5880;52.342;9.662;2022-09-17T05:40:51;6.63;;;1.50;;
11646;SDS011;5880;52.342;9.662;2022-09-17T05:43:17;7.00;;;2.10;;
11646;SDS011;5880;52.342;9.662;2022-09-17T05:45:43;5.00;;;1.50;;
11646;SDS011;5880;52.342;9.662;2022-09-17T05:48:10;5.80;;;1.70;;
11646;SDS011;5880;52.342;9.662;2022-09-17T05:50:38;4.70;;;1.33;;
11646;SDS011;5880;52.342;9.662;2022-09-17T05:53:06;5.47;;;1.70;;
11646;SDS011;5880;52.342;9.662;2022-09-17T05:55:35;5.73;;;1.40;;
11646;SDS011;5880;52.342;9.662;2022-09-17T05:58:14;4.13;;;1.40;;
11646;SDS011;5880;52.342;9.662;2022-09-17T06:00:42;5.53;;;1.47;;
11646;SDS011;5880;52.342;9.662;2022-09-17T06:03:13;5.33;;;1.70;;
11646;SDS011;5880;52.342;9.662;2022-09-17T06:05:41;5.00;;;1.60;;
11646;SDS011;5880;52.342;9.662;2022-09-17T06:08:16;4.20;;;1.50;;
11646;SDS011;5880;52.342;9.662;2022-09-17T06:10:41;7.37;;;1.60;;
11646;SDS011;5880;52.342;9.662;2022-09-17T06:13:07;7.80;;;1.90;;
11646;SDS011;5880;52.342;9.662;2022-09-17T06:15:33;4.50;;;1.60;;
11646;SDS011;5880;52.342;9.662;2022-09-17T06:17:58;3.07;;;1.33;;
11646;SDS011;5880;52.342;9.662;2022-09-17T06:20:24;3.77;;;1.40;;
11646;SDS011;5880;52.342;9.662;2022-09-17T06:22:54;4.03;;;1.40;;
11646;SDS011;5880;52.342;9.662;2022-09-17T06:25:23;4.57;;;1.57;;
11646;SDS011;5880;52.342;9.662;2022-09-17T06:27:50;3.67;;;1.30;;
11646;SDS011;5880;52.342;9.662;2022-09-17T06:30:16;5.20;;;1.70;;
11646;SDS011;5880;52.342;9.662;2022-09-17T06:32:42;5.40;;;1.93;;
11646;SDS011;5880;52.342;9.662;2022-09-17T06:35:08;4.93;;;1.57;;
11646;SDS011;5880;52.342;9.662;2022-09-17T06:37:34;4.90;;;1.30;;
11646;SDS011;5880;52.342;9.662;2022-09-17T06:40:04;5.00;;;1.60;;
11646;SDS011;5880;52.342;9.662;2022-09-17T06:42:31;6.97;;;1.63;;
11646;SDS011;5880;52.342;9.662;2022-09-17T06:44:56;4.83;;;1.60;;
11646;SDS011;5880;52.342;9.662;2022-09-17T06:47:25;4.93;;;1.50;;
11646;SDS011;5880;52.342;9.662;2022-09-17T06:49:51;6.63;;;1.40;;
11646;SDS011;5880;52.342;9.662;2022-09-17T06:52:18;5.63;;;1.70;;
11646;SDS011;5880;52.342;9.662;2022-09-17T06:54:44;8.00;;;1.57;;
11646;SDS011;5880;52.342;9.662;2022-09-17T06:57:09;5.80;;;1.87;;
11646;SDS011;5880;52.342;9.662;2022-09-17T06:59:35;4.37;;;1.80;;
11646;SDS011;5880;52.342;9.662;2022-09-17T07:02:01;3.10;;;1.40;;
11646;SDS011;5880;52.342;9.662;2022-09-17T07:04:26;4.83;;;1.60;;
11646;SDS011;5880;52.342;9.662;2022-09-17T07:06:52;3.43;;;1.40;;
11646;SDS011;5880;52.342;9.662;2022-09-17T07:09:17;6.40;;;1.70;;
11646;SDS011;5880;52.342;9.662;2022-09-17T07:11:43;8.33;;;1.93;;
11646;SDS011;5880;52.342;9.662;2022-09-17T07:14:09;4.00;;;1.30;;
11646;SDS011;5880;52.342;9.662;2022-09-17T07:16:35;6.93;;;1.70;;
11646;SDS011;5880;52.342;9.662;2022-09-17T07:19:03;6.03;;;1.50;;
11646;SDS011;5880;52.342;9.662;2022-09-17T07:21:29;5.70;;;1.70;;
11646;SDS011;5880;52.342;9.662;2022-09-17T07:23:55;4.53;;;1.80;;
11646;SDS011;5880;52.342;9.662;2022-09-17T07:26:21;5.17;;;1.57;;
11646;SDS011;5880;52.342;9.662;2022-09-17T07:28:47;6.37;;;1.80;;
11646;SDS011;5880;52.342;9.662;2022-09-17T07:31:13;3.60;;;1.40;;
11646;SDS011;5880;52.342;9.662;2022-09-17T07:33:39;6.13;;;1.43;;
11646;SDS011;5880;52.342;9.662;2022-09-17T07:36:06;3.63;;;1.50;;
11646;SDS011;5880;52.342;9.662;2022-09-17T07:38:36;4.27;;;1.33;;
11646;SDS011;5880;52.342;9.662;2022-09-17T07:41:09;4.90;;;1.40;;
11646;SDS011;5880;52.342;9.662;2022-09-17T07:43:41;4.00;;;1.43;;
11646;SDS011;5880;52.342;9.662;2022-09-17T07:46:17;5.13;;;1.50;;
11646;SDS011;5880;52.342;9.662;2022-09-17T07:48:44;6.33;;;1.40;;
11646;SDS011;5880;52.342;9.662;2022-09-17T07:51:18;4.93;;;1.57;;
11646;SDS011;5880;52.342;9.662;2022-09-17T07:53:46;6.20;;;1.83;;
11646;SDS011;5880;52.342;9.662;2022-09-17T07:56:16;6.17;;;1.87;;
11646;SDS011;5880;52.342;9.662;2022-09-17T07:58:42;2.70;;;1.50;;
11646;SDS011;5880;52.342;9.662;2022-09-17T08:01:08;3.70;;;1.50;;
11646;SDS011;5880;52.342;9.662;2022-09-17T08:03:37;6.00;;;1.60;;
11646;SDS011;5880;52.342;9.662;2022-09-17T08:06:07;5.03;;;1.30;;
11646;SDS011;5880;52.342;9.662;2022-09-17T08:08:38;4.30;;;1.60;;
11646;SDS011;5880;52.342;9.662;2022-09-17T08:11:07;5.53;;;1.57;;
11646;SDS011;5880;52.342;9.662;2022-09-17T08:13:34;3.60;;;1.50;;
11646;SDS011;5880;52.342;9.662;2022-09-17T08:16:01;6.23;;;1.40;;
11646;SDS011;5880;52.342;9.662;2022-09-17T08:18:29;6.13;;;1.73;;
11646;SDS011;5880;52.342;9.662;2022-09-17T08:20:56;5.57;;;2.00;;
11646;SDS011;5880;52.342;9.662;2022-09-17T08:23:28;3.30;;;1.70;;
11646;SDS011;5880;52.342;9.662;2022-09-17T08:25:58;3.90;;;1.43;;
11646;SDS011;5880;52.342;9.662;2022-09-17T08:28:26;3.80;;;1.37;;
11646;SDS011;5880;52.342;9.662;2022-09-17T08:30:58;5.47;;;1.53;;
11646;SDS011;5880;52.342;9.662;2022-09-17T08:33:33;5.43;;;1.47;;
11646;SDS011;5880;52.342;9.662;2022-09-17T08:36:04;4.60;;;1.40;;
11646;SDS011;5880;52.342;9.662;2022-09-17T08:38:32;4.70;;;1.33;;
11646;SDS011;5880;52.342;9.662;2022-09-17T08:43:54;5.17;;;1.47;;
11646;SDS011;5880;52.342;9.662;2022-09-17T08:46:39;5.20;;;1.33;;
11646;SDS011;5880;52.342;9.662;2022-09-17T08:55:42;3.87;;;1.30;;
11646;SDS011;5880;52.342;9.662;2022-09-17T08:58:39;3.87;;;1.17;;
11646;SDS011;5880;52.342;9.662;2022-09-17T09:07:25;5.03;;;1.37;;
11646;SDS011;5880;52.342;9.662;2022-09-17T09:12:50;6.13;;;1.40;;
11646;SDS011;5880;52.342;9.662;2022-09-17T09:20:52;3.93;;;1.30;;
11646;SDS011;5880;52.342;9.662;2022-09-17T09:26:18;7.67;;;1.63;;
11646;SDS011;5880;52.342;9.662;2022-09-17T09:28:52;4.73;;;1.50;;
11646;SDS011;5880;52.342;9.662;2022-09-17T09:31:46;4.13;;;1.57;;
11646;SDS011;5880;52.342;9.662;2022-09-17T09:34:24;5.87;;;1.27;;
11646;SDS011;5880;52.342;9.662;2022-09-17T09:43:10;5.60;;;1.60;;
11646;SDS011;5880;52.342;9.662;2022-09-17T09:45:49;3.77;;;1.33;;
11646;SDS011;5880;52.342;9.662;2022-09-17T09:48:54;2.80;;;1.10;;
11646;SDS011;5880;52.342;9.662;2022-09-17T09:56:47;3.53;;;1.30;;
11646;SDS011;5880;52.342;9.662;2022-09-17T09:59:27;3.73;;;1.40;;
11646;SDS011;5880;52.342;9.662;2022-09-17T10:01:53;4.57;;;1.07;;
11646;SDS011;5880;52.342;9.662;2022-09-17T10:04:25;4.88;;;1.50;;
11646;SDS011;5880;52.342;9.662;2022-09-17T10:06:53;4.75;;;1.40;;
11646;SDS011;5880;52.342;9.662;2022-09-17T10:09:29;3.83;;;1.42;;
11646;SDS011;5880;52.342;9.662;2022-09-17T10:14:29;2.78;;;1.13;;
11646;SDS011;5880;52.342;9.662;2022-09-17T10:17:23;4.20;;;1.35;;
11646;SDS011;5880;52.342;9.662;2022-09-17T10:20:07;2.92;;;1.50;;
11646;SDS011;5880;52.342;9.662;2022-09-17T10:22:42;3.17;;;0.90;;
11646;SDS011;5880;52.342;9.662;2022-09-17T10:27:52;3.85;;;1.42;;
11646;SDS011;5880;52.342;9.662;2022-09-17T10:30:19;3.92;;;1.33;;
11646;SDS011;5880;52.342;9.662;2022-09-17T10:33:09;5.10;;;1.40;;
11646;SDS011;5880;52.342;9.662;2022-09-17T10:35:42;3.75;;;1.23;;
11646;SDS011;5880;52.342;9.662;2022-09-17T10:41:12;5.60;;;1.30;;
11646;SDS011;5880;52.342;9.662;2022-09-17T10:43:45;2.75;;;1.15;;
11646;SDS011;5880;52.342;9.662;2022-09-17T10:46:24;3.30;;;1.15;;
11646;SDS011;5880;52.342;9.662;2022-09-17T10:49:10;4.07;;;1.15;;
11646;SDS011;5880;52.342;9.662;2022-09-17T10:52:10;2.67;;;1.10;;
11646;SDS011;5880;52.342;9.662;2022-09-17T10:57:38;2.17;;;0.88;;
11646;SDS011;5880;52.342;9.662;2022-09-17T11:00:19;4.95;;;1.70;;
11646;SDS011;5880;52.342;9.662;2022-09-17T11:06:21;2.90;;;1.15;;
11646;SDS011;5880;52.342;9.662;2022-09-17T11:12:23;3.50;;;0.90;;
11646;SDS011;5880;52.342;9.662;2022-09-17T11:20:58;1.80;;;1.00;;
11646;SDS011;5880;52.342;9.662;2022-09-17T11:34:59;1.77;;;1.05;;
11646;SDS011;5880;52.342;9.662;2022-09-17T11:37:55;3.23;;;1.30;;
11646;SDS011;5880;52.342;9.662;2022-09-17T11:43:32;1.67;;;0.90;;
11646;SDS011;5880;52.342;9.662;2022-09-17T11:46:05;4.67;;;1.27;;
11646;SDS011;5880;52.342;9.662;2022-09-17T11:48:54;2.40;;;1.10;;
11646;SDS011;5880;52.342;9.662;2022-09-17T11:51:33;3.67;;;1.30;;
11646;SDS011;5880;52.342;9.662;2022-09-17T11:54:13;5.17;;;1.03;;
11646;SDS011;5880;52.342;9.662;2022-09-17T11:56:53;3.63;;;1.17;;
11646;SDS011;5880;52.342;9.662;2022-09-17T11:59:44;2.27;;;1.07;;
11646;SDS011;5880;52.342;9.662;2022-09-17T12:04:53;5.37;;;1.33;;
11646;SDS011;5880;52.342;9.662;2022-09-17T12:10:24;4.83;;;1.30;;
11646;SDS011;5880;52.342;9.662;2022-09-17T12:13:35;3.27;;;1.00;;
11646;SDS011;5880;52.342;9.662;2022-09-17T12:16:25;3.80;;;0.85;;
11646;SDS011;5880;52.342;9.662;2022-09-17T12:22:10;2.55;;;1.02;;
11646;SDS011;5880;52.342;9.662;2022-09-17T12:25:11;2.60;;;1.20;;
11646;SDS011;5880;52.342;9.662;2022-09-17T12:27:52;2.60;;;1.20;;
11646;SDS011;5880;52.342;9.662;2022-09-17T12:30:37;3.90;;;1.20;;
11646;SDS011;5880;52.342;9.662;2022-09-17T12:36:07;3.00;;;1.23;;
11646;SDS011;5880;52.342;9.662;2022-09-17T12:41:34;3.07;;;1.20;;
11646;SDS011;5880;52.342;9.662;2022-09-17T12:47:32;2.97;;;0.90;;
11646;SDS011;5880;52.342;9.662;2022-09-17T12:53:28;1.63;;;0.80;;
11646;SDS011;5880;52.342;9.662;2022-09-17T12:56:38;2.13;;;0.80;;
11646;SDS011;5880;52.342;9.662;2022-09-17T12:59:30;1.67;;;0.70;;
11646;SDS011;5880;52.342;9.662;2022-09-17T13:02:13;1.17;;;0.50;;
11646;SDS011;5880;52.342;9.662;2022-09-17T13:05:57;2.63;;;0.80;;
11646;SDS011;5880;52.342;9.662;2022-09-17T13:08:13;2.20;;;0.70;;
11646;SDS011;5880;52.342;9.662;2022-09-17T13:17:12;1.67;;;0.80;;
11646;SDS011;5880;52.342;9.662;2022-09-17T13:20:13;3.10;;;1.03;;
11646;SDS011;5880;52.342;9.662;2022-09-17T13:22:50;2.57;;;0.60;;
11646;SDS011;5880;52.342;9.662;2022-09-17T13:25:20;2.97;;;0.90;;
11646;SDS011;5880;52.342;9.662;2022-09-17T13:27:47;1.27;;;0.80;;
11646;SDS011;5880;52.342;9.662;2022-09-17T13:30:16;2.27;;;0.80;;
11646;SDS011;5880;52.342;9.662;2022-09-17T13:32:45;1.27;;;0.53;;
11646;SDS011;5880;52.342;9.662;2022-09-17T13:38:01;3.30;;;1.10;;
11646;SDS011;5880;52.342;9.662;2022-09-17T13:42:56;4.97;;;0.90;;
11646;SDS011;5880;52.342;9.662;2022-09-17T13:45:28;2.63;;;1.00;;
11646;SDS011;5880;52.342;9.662;2022-09-17T13:48:02;1.57;;;0.60;;
11646;SDS011;5880;52.342;9.662;2022-09-17T13:50:35;1.17;;;0.70;;
11646;SDS011;5880;52.342;9.662;2022-09-17T13:53:16;1.43;;;0.43;;
11646;SDS011;5880;52.342;9.662;2022-09-17T13:55:51;0.73;;;0.40;;
11646;SDS011;5880;52.342;9.662;2022-09-17T13:58:29;0.63;;;0.30;;
11646;SDS011;5880;52.342;9.662;2022-09-17T14:01:04;1.57;;;0.60;;
11646;SDS011;5880;52.342;9.662;2022-09-17T14:16:34;1.47;;;0.73;;
11646;SDS011;5880;52.342;9.662;2022-09-17T14:21:39;1.50;;;0.70;;
11646;SDS011;5880;52.342;9.662;2022-09-17T14:30:20;2.47;;;0.77;;
11646;SDS011;5880;52.342;9.662;2022-09-17T14:36:08;2.30;;;0.60;;
11646;SDS011;5880;52.342;9.662;2022-09-17T14:38:43;2.27;;;0.90;;
11646;SDS011;5880;52.342;9.662;2022-09-17T14:41:24;4.23;;;1.20;;
11646;SDS011;5880;52.342;9.662;2022-09-17T14:44:06;1.17;;;0.67;;
11646;SDS011;5880;52.342;9.662;2022-09-17T14:46:47;2.93;;;0.83;;
11646;SDS011;5880;52.342;9.662;2022-09-17T14:49:29;2.00;;;0.90;;
11646;SDS011;5880;52.342;9.662;2022-09-17T14:52:00;2.33;;;1.10;;
11646;SDS011;5880;52.342;9.662;2022-09-17T14:54:47;1.10;;;0.70;;
11646;SDS011;5880;52.342;9.662;2022-09-17T14:57:25;1.70;;;0.83;;
11646;SDS011;5880;52.342;9.662;2022-09-17T14:59:54;1.60;;;0.80;;
11646;SDS011;5880;52.342;9.662;2022-09-17T15:02:38;4.67;;;0.90;;
11646;SDS011;5880;52.342;9.662;2022-09-17T15:08:04;1.80;;;0.60;;
11646;SDS011;5880;52.342;9.662;2022-09-17T15:10:34;3.53;;;1.33;;
11646;SDS011;5880;52.342;9.662;2022-09-17T15:13:26;1.63;;;0.87;;
11646;SDS011;5880;52.342;9.662;2022-09-17T15:16:03;3.47;;;1.03;;
11646;SDS011;5880;52.342;9.662;2022-09-17T15:18:40;1.27;;;0.70;;
11646;SDS011;5880;52.342;9.662;2022-09-17T15:21:15;2.93;;;1.00;;
11646;SDS011;5880;52.342;9.662;2022-09-17T15:23:42;3.63;;;1.10;;
11646;SDS011;5880;52.342;9.662;2022-09-17T15:26:10;3.47;;;1.50;;
11646;SDS011;5880;52.342;9.662;2022-09-17T15:28:41;2.47;;;1.20;;
11646;SDS011;5880;52.342;9.662;2022-09-17T15:31:16;3.00;;;1.27;;
11646;SDS011;5880;52.342;9.662;2022-09-17T15:33:44;2.60;;;1.87;;
11646;SDS011;5880;52.342;9.662;2022-09-17T15:38:48;5.47;;;2.47;;
11646;SDS011;5880;52.342;9.662;2022-09-17T15:41:29;3.07;;;1.80;;
11646;SDS011;5880;52.342;9.662;2022-09-17T15:46:48;3.53;;;1.80;;
11646;SDS011;5880;52.342;9.662;2022-09-17T15:49:32;3.93;;;2.00;;
11646;SDS011;5880;52.342;9.662;2022-09-17T15:54:58;3.87;;;2.77;;
11646;SDS011;5880;52.342;9.662;2022-09-17T15:57:26;3.63;;;2.10;;
11646;SDS011;5880;52.342;9.662;2022-09-17T15:59:54;4.47;;;2.10;;
11646;SDS011;5880;52.342;9.662;2022-09-17T16:02:30;4.03;;;1.63;;
11646;SDS011;5880;52.342;9.662;2022-09-17T16:05:11;4.17;;;1.70;;
11646;SDS011;5880;52.342;9.662;2022-09-17T16:07:43;3.40;;;1.47;;
11646;SDS011;5880;52.342;9.662;2022-09-17T16:10:10;1.13;;;0.90;;
11646;SDS011;5880;52.342;9.662;2022-09-17T16:12:38;2.60;;;0.80;;
11646;SDS011;5880;52.342;9.662;2022-09-17T16:15:04;3.53;;;1.10;;
11646;SDS011;5880;52.342;9.662;2022-09-17T16:17:52;1.70;;;0.67;;
11646;SDS011;5880;52.342;9.662;2022-09-17T16:20:18;1.77;;;0.83;;
11646;SDS011;5880;52.342;9.662;2022-09-17T16:22:49;2.40;;;1.00;;
11646;SDS011;5880;52.342;9.662;2022-09-17T16:25:17;2.10;;;0.80;;
11646;SDS011;5880;52.342;9.662;2022-09-17T16:27:55;3.00;;;0.80;;
11646;SDS011;5880;52.342;9.662;2022-09-17T16:30:26;1.60;;;0.90;;
11646;SDS011;5880;52.342;9.662;2022-09-17T16:32:52;1.50;;;0.77;;
11646;SDS011;5880;52.342;9.662;2022-09-17T16:35:19;3.03;;;0.77;;
11646;SDS011;5880;52.342;9.662;2022-09-17T16:37:49;2.50;;;0.80;;
11646;SDS011;5880;52.342;9.662;2022-09-17T16:40:17;1.97;;;0.90;;
11646;SDS011;5880;52.342;9.662;2022-09-17T16:42:45;2.27;;;1.30;;
11646;SDS011;5880;52.342;9.662;2022-09-17T16:45:11;2.20;;;1.13;;
11646;SDS011;5880;52.342;9.662;2022-09-17T16:47:38;2.47;;;1.10;;
11646;SDS011;5880;52.342;9.662;2022-09-17T16:50:09;2.03;;;0.80;;
11646;SDS011;5880;52.342;9.662;2022-09-17T16:52:38;2.47;;;1.00;;
11646;SDS011;5880;52.342;9.662;2022-09-17T16:55:04;2.37;;;0.90;;
11646;SDS011;5880;52.342;9.662;2022-09-17T16:57:31;3.20;;;0.90;;
11646;SDS011;5880;52.342;9.662;2022-09-17T16:59:57;1.77;;;0.73;;
11646;SDS011;5880;52.342;9.662;2022-09-17T17:02:23;3.23;;;0.90;;
11646;SDS011;5880;52.342;9.662;2022-09-17T17:04:49;3.17;;;1.00;;
11646;SDS011;5880;52.342;9.662;2022-09-17T17:07:15;1.47;;;0.80;;
11646;SDS011;5880;52.342;9.662;2022-09-17T17:09:42;2.53;;;0.90;;
11646;SDS011;5880;52.342;9.662;2022-09-17T17:12:08;1.90;;;0.70;;
11646;SDS011;5880;52.342;9.662;2022-09-17T17:14:34;1.90;;;1.10;;
11646;SDS011;5880;52.342;9.662;2022-09-17T17:17:01;1.10;;;0.77;;
11646;SDS011;5880;52.342;9.662;2022-09-17T17:19:27;3.07;;;0.80;;
11646;SDS011;5880;52.342;9.662;2022-09-17T17:21:54;2.83;;;0.90;;
11646;SDS011;5880;52.342;9.662;2022-09-17T17:24:20;1.63;;;0.60;;
11646;SDS011;5880;52.342;9.662;2022-09-17T17:26:46;3.63;;;1.17;;
11646;SDS011;5880;52.342;9.662;2022-09-17T17:29:12;1.70;;;0.90;;
11646;SDS011;5880;52.342;9.662;2022-09-17T17:31:38;2.83;;;1.03;;
11646;SDS011;5880;52.342;9.662;2022-09-17T17:34:04;2.97;;;0.97;;
11646;SDS011;5880;52.342;9.662;2022-09-17T17:36:31;3.57;;;0.80;;
11646;SDS011;5880;52.342;9.662;2022-09-17T17:38:58;3.07;;;1.20;;
11646;SDS011;5880;52.342;9.662;2022-09-17T17:41:25;2.30;;;0.80;;
11646;SDS011;5880;52.342;9.662;2022-09-17T17:43:52;3.47;;;0.90;;
11646;SDS011;5880;52.342;9.662;2022-09-17T17:46:19;4.03;;;1.20;;
11646;SDS011;5880;52.342;9.662;2022-09-17T17:48:47;1.77;;;0.90;;
11646;SDS011;5880;52.342;9.662;2022-09-17T17:51:13;1.97;;;1.00;;
11646;SDS011;5880;52.342;9.662;2022-09-17T17:53:42;2.43;;;1.20;;
11646;SDS011;5880;52.342;9.662;2022-09-17T17:56:09;3.80;;;1.33;;
11646;SDS011;5880;52.342;9.662;2022-09-17T17:58:36;3.00;;;0.90;;
11646;SDS011;5880;52.342;9.662;2022-09-17T18:01:13;2.83;;;1.00;;
11646;SDS011;5880;52.342;9.662;2022-09-17T18:03:48;1.20;;;0.90;;
11646;SDS011;5880;52.342;9.662;2022-09-17T18:06:13;3.57;;;1.10;;
11646;SDS011;5880;52.342;9.662;2022-09-17T18:08:40;3.13;;;1.10;;
11646;SDS011;5880;52.342;9.662;2022-09-17T18:11:07;4.37;;;1.20;;
11646;SDS011;5880;52.342;9.662;2022-09-17T18:13:35;2.73;;;1.10;;
11646;SDS011;5880;52.342;9.662;2022-09-17T18:16:03;2.40;;;1.10;;
11646;SDS011;5880;52.342;9.662;2022-09-17T18:18:33;3.23;;;1.20;;
11646;SDS011;5880;52.342;9.662;2022-09-17T18:21:03;3.13;;;1.13;;
11646;SDS011;5880;52.342;9.662;2022-09-17T18:23:33;5.37;;;1.50;;
11646;SDS011;5880;52.342;9.662;2022-09-17T18:26:05;4.23;;;1.30;;
11646;SDS011;5880;52.342;9.662;2022-09-17T18:28:35;3.93;;;1.23;;